createdAt,value
2018-08-22T00:00:08.618Z,99549.77
2018-08-22T00:02:38.014Z,99546.86
2018-08-22T00:05:07.597Z,99547.67
2018-08-22T00:07:36.903Z,99537.40
2018-08-22T00:10:06.121Z,99538.21
2018-08-22T00:12:35.134Z,99544.56
2018-08-22T00:15:04.669Z,99547.89
2018-08-22T00:17:33.914Z,99545.55
2018-08-22T00:20:03.937Z,99545.41
2018-08-22T00:22:33.059Z,99543.87
2018-08-22T00:25:02.449Z,99552.95
2018-08-22T00:27:31.550Z,99556.45
2018-08-22T00:30:01.007Z,99548.67
2018-08-22T00:32:30.044Z,99553.80
2018-08-22T00:34:59.094Z,99553.94
2018-08-22T00:37:28.373Z,99552.09
2018-08-22T00:39:57.643Z,99555.17
2018-08-22T00:42:26.632Z,99556.75
2018-08-22T00:44:55.956Z,99553.98
2018-08-22T00:47:25.013Z,99555.93
2018-08-22T00:49:54.050Z,99557.73
2018-08-22T00:52:23.655Z,99558.30
2018-08-22T00:54:52.799Z,99552.52
2018-08-22T00:57:21.810Z,99555.28
2018-08-22T00:59:51.088Z,99549.19
2018-08-22T01:02:20.615Z,99554.00
2018-08-22T01:04:49.656Z,99552.37
2018-08-22T01:07:19.000Z,99554.25
2018-08-22T01:09:48.175Z,99556.77
2018-08-22T01:12:24.051Z,99552.62
2018-08-22T01:14:53.294Z,99554.25
2018-08-22T01:17:22.235Z,99551.70
2018-08-22T01:19:52.041Z,99539.78
2018-08-22T01:22:21.421Z,99552.45
2018-08-22T01:24:50.789Z,99551.28
2018-08-22T01:27:22.154Z,99555.68
2018-08-22T01:29:53.246Z,99555.68
2018-08-22T01:32:22.703Z,99560.08
2018-08-22T01:34:52.626Z,99555.44
2018-08-22T01:37:22.380Z,99558.30
2018-08-22T01:39:51.608Z,99557.48
2018-08-22T01:42:20.632Z,99554.47
2018-08-22T01:44:49.973Z,99550.77
2018-08-22T01:47:19.220Z,99556.36
2018-08-22T01:49:48.613Z,99550.77
2018-08-22T01:52:17.814Z,99549.55
2018-08-22T01:54:46.985Z,99546.58
2018-08-22T01:57:16.317Z,99547.86
2018-08-22T01:59:45.276Z,99549.44
2018-08-22T02:02:17.431Z,99543.09
2018-08-22T02:04:47.283Z,99552.03
2018-08-22T02:07:16.675Z,99557.22
2018-08-22T02:09:45.823Z,99551.95
2018-08-22T02:12:14.887Z,99554.70
2018-08-22T02:14:44.685Z,99555.17
2018-08-22T02:17:13.759Z,99556.66
2018-08-22T02:19:43.452Z,99556.24
2018-08-22T02:22:12.616Z,99560.56
2018-08-22T02:24:41.903Z,99554.35
2018-08-22T02:27:11.101Z,99552.81
2018-08-22T02:29:40.673Z,99556.54
2018-08-22T02:32:09.833Z,99556.63
2018-08-22T02:34:38.803Z,99555.00
2018-08-22T02:37:07.861Z,99554.18
2018-08-22T02:39:37.128Z,99555.91
2018-08-22T02:42:06.130Z,99552.89
2018-08-22T02:44:35.617Z,99558.41
2018-08-22T02:47:05.429Z,99559.79
2018-08-22T02:49:34.729Z,99555.00
2018-08-22T02:52:03.916Z,99559.64
2018-08-22T02:54:33.293Z,99558.48
2018-08-22T02:57:02.495Z,99562.62
2018-08-22T02:59:31.713Z,99555.50
2018-08-22T03:02:00.740Z,99556.88
2018-08-22T03:04:29.847Z,99559.39
2018-08-22T03:06:59.220Z,99560.27
2018-08-22T03:09:28.254Z,99560.05
2018-08-22T03:11:57.360Z,99557.50
2018-08-22T03:14:26.519Z,99555.00
2018-08-22T03:16:55.770Z,99556.63
2018-08-22T03:19:24.819Z,99558.27
2018-08-22T03:21:54.000Z,99561.80
2018-08-22T03:24:23.895Z,99566.77
2018-08-22T03:26:53.230Z,99569.77
2018-08-22T03:29:22.584Z,99563.69
2018-08-22T03:31:51.708Z,99570.28
2018-08-22T03:34:21.201Z,99574.98
2018-08-22T03:36:50.207Z,99570.03
2018-08-22T03:39:19.556Z,99572.79
2018-08-22T03:41:48.712Z,99574.98
2018-08-22T03:44:17.878Z,99572.23
2018-08-22T03:46:46.731Z,99576.93
2018-08-22T03:49:15.837Z,99578.05
2018-08-22T03:51:44.794Z,99581.13
2018-08-22T03:54:13.884Z,99583.67
2018-08-22T03:56:42.848Z,99586.98
2018-08-22T03:59:11.987Z,99586.17
2018-08-22T04:01:41.033Z,99587.95
2018-08-22T04:04:10.231Z,99585.43
2018-08-22T04:06:39.164Z,99590.31
2018-08-22T04:09:08.928Z,99589.55
2018-08-22T04:11:38.177Z,99594.02
2018-08-22T04:14:07.228Z,99593.30
2018-08-22T04:16:36.337Z,99587.92
2018-08-22T04:19:05.290Z,99597.66
2018-08-22T04:21:34.486Z,99600.47
2018-08-22T04:24:05.434Z,99600.73
2018-08-22T04:26:34.496Z,99582.29
2018-08-22T04:29:04.504Z,99602.36
2018-08-22T04:31:35.035Z,99602.28
2018-08-22T04:34:04.169Z,99601.72
2018-08-22T04:36:33.292Z,99602.36
2018-08-22T04:39:02.655Z,99602.11
2018-08-22T04:41:31.792Z,99606.38
2018-08-22T04:44:01.030Z,99608.41
2018-08-22T04:46:30.208Z,99602.24
2018-08-22T04:48:59.611Z,99603.20
2018-08-22T04:51:28.710Z,99608.55
2018-08-22T04:53:59.227Z,99604.78
2018-08-22T04:56:28.908Z,99610.81
2018-08-22T04:58:58.323Z,99608.69
2018-08-22T05:01:27.314Z,99604.33
2018-08-22T05:03:56.535Z,99600.36
2018-08-22T05:06:25.762Z,99605.96
2018-08-22T05:08:54.812Z,99604.66
2018-08-22T05:11:23.818Z,99603.64
2018-08-22T05:13:52.823Z,99608.59
2018-08-22T05:16:21.828Z,99615.79
2018-08-22T05:18:51.060Z,99621.86
2018-08-22T05:21:20.079Z,99622.43
2018-08-22T05:23:49.070Z,99618.61
2018-08-22T05:26:18.567Z,99618.96
2018-08-22T05:28:47.794Z,99622.91
2018-08-22T05:31:16.820Z,99621.13
2018-08-22T05:33:45.782Z,99613.00
2018-08-22T05:36:14.873Z,99616.73
2018-08-22T05:38:43.950Z,99621.03
2018-08-22T05:41:14.090Z,99609.57
2018-08-22T05:43:43.291Z,99622.09
2018-08-22T05:46:12.366Z,99618.83
2018-08-22T05:48:41.460Z,99623.89
2018-08-22T05:51:10.625Z,99622.41
2018-08-22T05:53:39.690Z,99614.27
2018-08-22T05:56:08.849Z,99615.53
2018-08-22T05:58:38.445Z,99624.19
2018-08-22T06:01:07.336Z,99626.79
2018-08-22T06:03:36.456Z,99628.08
2018-08-22T06:06:05.646Z,99619.61
2018-08-22T06:08:34.650Z,99622.22
2018-08-22T06:11:03.742Z,99629.75
2018-08-22T06:13:32.858Z,99624.61
2018-08-22T06:16:01.845Z,99631.36
2018-08-22T06:18:31.368Z,99640.62
2018-08-22T06:21:00.579Z,99636.84
2018-08-22T06:23:29.625Z,99639.53
2018-08-22T06:25:58.866Z,99630.88
2018-08-22T06:28:28.486Z,99633.90
2018-08-22T06:30:58.401Z,99626.38
2018-08-22T06:33:27.648Z,99630.69
2018-08-22T06:35:56.980Z,99635.01
2018-08-22T06:38:26.303Z,99633.16
2018-08-22T06:40:55.840Z,99635.26
2018-08-22T06:43:24.972Z,99634.69
2018-08-22T06:45:54.196Z,99626.29
2018-08-22T06:48:23.169Z,99634.73
2018-08-22T06:50:52.166Z,99630.17
2018-08-22T06:53:21.188Z,99632.27
2018-08-22T06:55:50.406Z,99625.03
2018-08-22T06:58:22.208Z,99628.76
2018-08-22T07:00:51.446Z,99623.12
2018-08-22T07:03:20.573Z,99625.81
2018-08-22T07:05:49.538Z,99623.69
2018-08-22T07:08:18.824Z,99621.07
2018-08-22T07:10:47.883Z,99619.94
2018-08-22T07:13:16.857Z,99619.12
2018-08-22T07:15:46.262Z,99614.97
2018-08-22T07:18:15.506Z,99612.09
2018-08-22T07:20:44.833Z,99612.84
2018-08-22T07:23:13.937Z,99612.23
2018-08-22T07:25:43.087Z,99611.24
2018-08-22T07:28:12.204Z,99614.97
2018-08-22T07:30:42.857Z,99616.73
2018-08-22T07:33:11.834Z,99617.70
2018-08-22T07:35:40.948Z,99623.69
2018-08-22T07:38:10.149Z,99619.78
2018-08-22T07:40:39.168Z,99615.88
2018-08-22T07:43:09.317Z,99618.30
2018-08-22T07:45:38.342Z,99620.41
2018-08-22T07:48:07.859Z,99616.41
2018-08-22T07:50:37.933Z,99618.73
2018-08-22T07:53:07.077Z,99621.64
2018-08-22T07:55:38.903Z,99624.06
2018-08-22T07:58:08.436Z,99616.81
2018-08-22T08:00:37.518Z,99619.47
2018-08-22T08:03:06.517Z,99618.58
2018-08-22T08:05:35.602Z,99622.55
2018-08-22T08:08:04.994Z,99613.67
2018-08-22T08:10:36.559Z,99616.93
2018-08-22T08:13:14.270Z,99616.00
2018-08-22T08:15:43.354Z,99612.23
2018-08-22T08:18:12.423Z,99619.17
2018-08-22T08:20:41.493Z,99620.83
2018-08-22T08:23:10.728Z,99622.26
2018-08-22T08:25:39.874Z,99608.34
2018-08-22T08:28:09.225Z,99613.90
2018-08-22T08:30:38.481Z,99604.44
2018-08-22T08:33:08.667Z,99613.37
2018-08-22T08:35:37.824Z,99613.72
2018-08-22T08:38:07.162Z,99605.47
2018-08-22T08:40:36.261Z,99598.79
2018-08-22T08:43:05.368Z,99600.66
2018-08-22T08:45:34.516Z,99595.60
2018-08-22T08:48:03.952Z,99604.62
2018-08-22T08:50:33.033Z,99602.32
2018-08-22T08:53:02.090Z,99597.25
2018-08-22T08:55:31.140Z,99594.47
2018-08-22T08:58:00.262Z,99589.22
2018-08-22T09:00:29.739Z,99588.87
2018-08-22T09:02:58.839Z,99583.99
2018-08-22T09:05:27.929Z,99584.70
2018-08-22T09:07:57.001Z,99585.59
2018-08-22T09:10:26.157Z,99589.86
2018-08-22T09:12:55.437Z,99586.17
2018-08-22T09:15:24.637Z,99593.57
2018-08-22T09:17:54.060Z,99587.08
2018-08-22T09:20:23.548Z,99587.28
2018-08-22T09:22:52.508Z,99582.51
2018-08-22T09:25:21.738Z,99577.97
2018-08-22T09:27:50.964Z,99578.98
2018-08-22T09:30:19.985Z,99577.01
2018-08-22T09:32:49.203Z,99573.51
2018-08-22T09:35:18.593Z,99575.70
2018-08-22T09:37:47.514Z,99575.17
2018-08-22T09:40:16.677Z,99568.64
2018-08-22T09:42:45.998Z,99558.52
2018-08-22T09:45:15.035Z,99561.34
2018-08-22T09:47:44.315Z,99553.84
2018-08-22T09:50:13.936Z,99557.06
2018-08-22T09:52:42.946Z,99556.31
2018-08-22T09:55:12.247Z,99551.59
2018-08-22T09:57:41.877Z,99551.17
2018-08-22T10:00:16.279Z,99544.27
2018-08-22T10:02:46.464Z,99544.66
2018-08-22T10:05:15.676Z,99547.63
2018-08-22T10:07:44.876Z,99543.84
2018-08-22T10:10:14.236Z,99542.81
2018-08-22T10:12:43.467Z,99536.61
2018-08-22T10:15:12.558Z,99538.97
2018-08-22T10:17:41.685Z,99526.70
2018-08-22T10:20:11.628Z,99530.02
2018-08-22T10:22:40.900Z,99528.11
2018-08-22T10:25:10.080Z,99523.42
2018-08-22T10:27:39.083Z,99520.23
2018-08-22T10:30:08.414Z,99517.58
2018-08-22T10:32:37.856Z,99518.95
2018-08-22T10:35:07.007Z,99511.17
2018-08-22T10:37:36.155Z,99506.31
2018-08-22T10:40:05.323Z,99502.64
2018-08-22T10:42:34.466Z,99505.20
2018-08-22T10:45:03.442Z,99498.37
2018-08-22T10:47:32.960Z,99491.89
2018-08-22T10:50:01.918Z,99489.61
2018-08-22T10:52:31.160Z,99488.86
2018-08-22T10:55:00.158Z,99487.80
2018-08-22T10:57:29.368Z,99480.71
2018-08-22T10:59:58.643Z,99483.62
2018-08-22T11:02:34.108Z,99474.41
2018-08-22T11:05:04.129Z,99472.33
2018-08-22T11:07:33.195Z,99476.34
2018-08-22T11:10:02.405Z,99468.83
2018-08-22T11:12:31.715Z,99464.33
2018-08-22T11:15:00.745Z,99468.63
2018-08-22T11:17:30.683Z,99462.55
2018-08-22T11:19:59.820Z,99450.47
2018-08-22T11:22:39.533Z,99457.14
2018-08-22T11:25:19.409Z,99459.44
2018-08-22T11:27:59.364Z,99457.75
2018-08-22T11:30:39.482Z,99462.03
2018-08-22T11:33:19.178Z,99455.57
2018-08-22T11:35:46.768Z,99446.09
2018-08-22T11:38:15.895Z,99451.80
2018-08-22T11:40:45.022Z,99456.47
2018-08-22T11:43:14.055Z,99451.80
2018-08-22T11:45:43.212Z,99440.70
2018-08-22T11:48:12.352Z,99442.77
2018-08-22T11:50:41.537Z,99441.20
2018-08-22T11:53:10.648Z,99434.47
2018-08-22T11:55:40.357Z,99437.30
2018-08-22T11:58:09.674Z,99430.33
2018-08-22T12:00:38.723Z,99426.72
2018-08-22T12:03:07.879Z,99423.77
2018-08-22T12:05:37.049Z,99422.98
2018-08-22T12:08:06.075Z,99418.23
2018-08-22T12:10:35.468Z,99418.66
2018-08-22T12:13:06.757Z,99417.31
2018-08-22T12:15:36.103Z,99421.17
2018-08-22T12:18:05.276Z,99416.80
2018-08-22T12:20:35.548Z,99410.45
2018-08-22T12:23:05.097Z,99415.48
2018-08-22T12:25:34.613Z,99413.30
2018-08-22T12:28:03.525Z,99404.49
2018-08-22T12:30:32.577Z,99398.14
2018-08-22T12:33:01.843Z,99394.55
2018-08-22T12:35:31.008Z,99393.98
2018-08-22T12:37:59.928Z,99390.41
2018-08-22T12:40:29.046Z,99393.84
2018-08-22T12:42:58.074Z,99390.92
2018-08-22T12:45:27.415Z,99384.77
2018-08-22T12:47:56.534Z,99387.59
2018-08-22T12:50:25.773Z,99384.02
2018-08-22T12:52:55.071Z,99378.64
2018-08-22T12:55:24.997Z,99377.03
2018-08-22T12:57:54.492Z,99377.63
2018-08-22T13:00:23.887Z,99367.24
2018-08-22T13:02:52.923Z,99357.86
2018-08-22T13:05:22.153Z,99356.47
2018-08-22T13:07:51.246Z,99367.48
2018-08-22T13:10:20.500Z,99358.48
2018-08-22T13:12:49.862Z,99352.32
2018-08-22T13:15:19.173Z,99357.73
2018-08-22T13:17:48.953Z,99348.14
2018-08-22T13:20:18.363Z,99339.73
2018-08-22T13:22:47.953Z,99346.57
2018-08-22T13:25:16.992Z,99340.97
2018-08-22T13:27:46.271Z,99340.56
2018-08-22T13:30:16.016Z,99323.34
2018-08-22T13:32:45.488Z,99334.19
2018-08-22T13:35:14.706Z,99326.78
2018-08-22T13:37:44.128Z,99319.59
2018-08-22T13:40:13.308Z,99321.98
2018-08-22T13:42:43.115Z,99320.78
2018-08-22T13:45:12.730Z,99322.18
2018-08-22T13:47:41.829Z,99322.78
2018-08-22T13:50:10.977Z,99310.16
2018-08-22T13:52:40.318Z,99313.55
2018-08-22T13:55:09.384Z,99307.94
2018-08-22T13:57:38.435Z,99302.14
2018-08-22T14:00:08.207Z,99297.12
2018-08-22T14:02:37.305Z,99304.94
2018-08-22T14:05:06.509Z,99301.11
2018-08-22T14:07:35.719Z,99298.72
2018-08-22T14:10:05.121Z,99303.52
2018-08-22T14:12:34.617Z,99295.91
2018-08-22T14:15:03.833Z,99290.30
2018-08-22T14:17:33.079Z,99284.89
2018-08-22T14:20:02.592Z,99289.69
2018-08-22T14:22:31.865Z,99278.04
2018-08-22T14:25:01.239Z,99286.48
2018-08-22T14:27:30.494Z,99284.09
2018-08-22T14:29:59.841Z,99281.48
2018-08-22T14:32:29.031Z,99283.27
2018-08-22T14:34:58.178Z,99281.66
2018-08-22T14:37:27.430Z,99271.66
2018-08-22T14:39:56.538Z,99277.28
2018-08-22T14:42:25.535Z,99267.83
2018-08-22T14:44:54.526Z,99264.84
2018-08-22T14:47:23.531Z,99269.22
2018-08-22T14:49:52.651Z,99268.80
2018-08-22T14:52:21.783Z,99264.98
2018-08-22T14:54:50.774Z,99266.38
2018-08-22T14:57:19.808Z,99260.16
2018-08-22T14:59:48.891Z,99260.97
2018-08-22T15:02:18.074Z,99259.98
2018-08-22T15:04:46.991Z,99260.36
2018-08-22T15:07:16.205Z,99254.73
2018-08-22T15:09:46.087Z,99258.35
2018-08-22T15:12:15.156Z,99253.75
2018-08-22T15:14:44.682Z,99252.34
2018-08-22T15:17:13.834Z,99250.32
2018-08-22T15:19:43.063Z,99248.53
2018-08-22T15:22:12.394Z,99245.32
2018-08-22T15:24:41.554Z,99235.92
2018-08-22T15:27:10.586Z,99246.14
2018-08-22T15:29:39.701Z,99240.73
2018-08-22T15:32:08.860Z,99231.13
2018-08-22T15:34:49.358Z,99236.55
2018-08-22T15:37:18.325Z,99234.73
2018-08-22T15:39:47.277Z,99231.33
2018-08-22T15:42:16.708Z,99229.55
2018-08-22T15:44:46.121Z,99219.89
2018-08-22T15:47:15.268Z,99223.71
2018-08-22T15:49:45.403Z,99224.53
2018-08-22T15:52:14.814Z,99217.30
2018-08-22T15:55:18.609Z,99217.52
2018-08-22T15:58:00.114Z,99218.13
2018-08-22T16:00:36.307Z,99219.73
2018-08-22T16:03:06.502Z,99215.75
2018-08-22T16:05:36.265Z,99211.13
2018-08-22T16:08:06.300Z,99209.13
2018-08-22T16:10:35.452Z,99204.73
2018-08-22T16:13:04.677Z,99200.53
2018-08-22T16:15:34.863Z,99202.34
2018-08-22T16:18:06.421Z,99195.73
2018-08-22T16:20:43.837Z,99197.55
2018-08-22T16:23:12.842Z,99200.52
2018-08-22T16:25:43.528Z,99195.51
2018-08-22T16:28:12.650Z,99198.11
2018-08-22T16:30:42.151Z,99195.94
2018-08-22T16:33:11.706Z,99198.13
2018-08-22T16:35:47.810Z,99189.72
2018-08-22T16:38:17.161Z,99192.73
2018-08-22T16:40:49.835Z,99196.13
2018-08-22T16:43:44.122Z,99191.13
2018-08-22T16:46:16.037Z,99193.94
2018-08-22T16:48:47.978Z,99191.73
2018-08-22T16:51:17.167Z,99194.71
2018-08-22T16:53:59.612Z,99190.69
2018-08-22T16:56:29.369Z,99183.28
2018-08-22T16:59:02.417Z,99187.45
2018-08-22T17:01:31.678Z,99191.47
2018-08-22T17:04:00.596Z,99188.23
2018-08-22T17:06:29.874Z,99192.23
2018-08-22T17:08:59.496Z,99195.83
2018-08-22T17:11:28.502Z,99185.77
2018-08-22T17:13:57.610Z,99196.38
2018-08-22T17:16:26.894Z,99196.79
2018-08-22T17:18:55.999Z,99198.97
2018-08-22T17:21:25.781Z,99198.38
2018-08-22T17:23:54.819Z,99206.81
2018-08-22T17:26:24.373Z,99198.63
2018-08-22T17:28:56.991Z,99203.59
2018-08-22T17:31:27.160Z,99196.97
2018-08-22T17:33:58.663Z,99195.75
2018-08-22T17:36:27.929Z,99199.92
2018-08-22T17:38:57.862Z,99198.27
2018-08-22T17:41:28.083Z,99200.41
2018-08-22T17:44:15.362Z,99201.35
2018-08-22T17:46:49.399Z,99201.89
2018-08-22T17:49:18.528Z,99203.61
2018-08-22T17:51:57.524Z,99193.92
2018-08-22T17:54:27.183Z,99207.30
2018-08-22T17:57:08.691Z,99203.81
2018-08-22T17:59:37.695Z,99211.34
2018-08-22T18:02:06.998Z,99210.48
2018-08-22T18:04:46.950Z,99215.80
2018-08-22T18:07:16.879Z,99215.53
2018-08-22T18:09:46.794Z,99215.08
2018-08-22T18:12:16.272Z,99222.74
2018-08-22T18:14:45.233Z,99218.48
2018-08-22T18:17:15.632Z,99228.20
2018-08-22T18:19:44.637Z,99231.11
2018-08-22T18:22:13.835Z,99231.44
2018-08-22T18:24:47.341Z,99233.94
2018-08-22T18:27:17.369Z,99242.24
2018-08-22T18:29:47.289Z,99244.12
2018-08-22T18:32:16.688Z,99249.03
2018-08-22T18:35:09.795Z,99251.34
2018-08-22T18:37:39.734Z,99249.64
2018-08-22T18:40:15.684Z,99245.22
2018-08-22T18:42:47.174Z,99249.51
2018-08-22T18:45:16.256Z,99254.02
2018-08-22T18:47:45.662Z,99251.17
2018-08-22T18:50:15.149Z,99259.67
2018-08-22T18:52:46.720Z,99259.19
2018-08-22T18:55:16.365Z,99261.12
2018-08-22T18:57:46.184Z,99261.43
2018-08-22T19:00:15.363Z,99256.56
2018-08-22T19:02:44.426Z,99262.45
2018-08-22T19:05:30.003Z,99261.95
2018-08-22T19:08:02.153Z,99262.66
2018-08-22T19:10:32.490Z,99266.14
2018-08-22T19:13:06.687Z,99269.05
2018-08-22T19:15:36.671Z,99269.13
2018-08-22T19:18:07.438Z,99265.02
2018-08-22T19:20:36.699Z,99268.34
2018-08-22T19:23:05.855Z,99267.47
2018-08-22T19:25:35.652Z,99266.38
2018-08-22T19:28:04.896Z,99266.71
2018-08-22T19:30:37.398Z,99264.23
2018-08-22T19:33:10.074Z,99268.48
2018-08-22T19:35:38.931Z,99266.02
2018-08-22T19:38:08.704Z,99265.38
2018-08-22T19:40:38.256Z,99263.11
2018-08-22T19:43:07.563Z,99264.44
2018-08-22T19:45:36.955Z,99255.41
2018-08-22T19:48:06.392Z,99261.20
2018-08-22T19:50:35.365Z,99264.73
2018-08-22T19:53:04.556Z,99262.88
2018-08-22T19:55:34.484Z,99264.21
2018-08-22T19:58:03.722Z,99265.77
2018-08-22T20:00:32.894Z,99266.86
2018-08-22T20:03:02.324Z,99266.56
2018-08-22T20:05:51.768Z,99262.67
2018-08-22T20:08:25.800Z,99266.94
2018-08-22T20:10:54.824Z,99263.86
2018-08-22T20:13:24.153Z,99257.80
2018-08-22T20:15:53.787Z,99257.50
2018-08-22T20:18:23.529Z,99256.62
2018-08-22T20:20:52.792Z,99259.65
2018-08-22T20:23:23.152Z,99264.13
2018-08-22T20:25:52.507Z,99256.88
2018-08-22T20:28:21.776Z,99255.18
2018-08-22T20:30:51.634Z,99248.73
2018-08-22T20:33:20.640Z,99248.43
2018-08-22T20:35:49.619Z,99252.33
2018-08-22T20:38:18.807Z,99257.20
2018-08-22T20:40:49.925Z,99247.77
2018-08-22T20:43:25.140Z,99248.05
2018-08-22T20:45:54.487Z,99249.13
2018-08-22T20:48:23.857Z,99250.81
2018-08-22T20:50:52.997Z,99247.47
2018-08-22T20:53:22.825Z,99244.38
2018-08-22T20:55:54.698Z,99245.69
2018-08-22T20:58:32.802Z,99253.70
2018-08-22T21:01:01.866Z,99250.03
2018-08-22T21:03:31.076Z,99249.38
2018-08-22T21:06:00.472Z,99250.33
2018-08-22T21:08:29.776Z,99253.61
2018-08-22T21:10:58.697Z,99252.71
2018-08-22T21:13:27.805Z,99253.20
2018-08-22T21:15:57.441Z,99257.28
2018-08-22T21:18:26.538Z,99261.37
2018-08-22T21:20:55.546Z,99261.86
2018-08-22T21:23:24.511Z,99257.03
2018-08-22T21:25:53.627Z,99256.36
2018-08-22T21:28:28.686Z,99252.66
2018-08-22T21:31:00.893Z,99248.98
2018-08-22T21:33:30.967Z,99243.33
2018-08-22T21:36:00.175Z,99248.42
2018-08-22T21:38:30.056Z,99243.01
2018-08-22T21:40:59.278Z,99245.55
2018-08-22T21:43:28.545Z,99245.32
2018-08-22T21:45:57.686Z,99240.72
2018-08-22T21:48:27.140Z,99236.33
2018-08-22T21:50:56.162Z,99235.31
2018-08-22T21:53:25.307Z,99240.86
2018-08-22T21:55:54.690Z,99236.38
2018-08-22T21:58:24.120Z,99239.87
2018-08-22T22:00:53.187Z,99241.13
2018-08-22T22:03:27.895Z,99239.89
2018-08-22T22:06:00.892Z,99241.41
2018-08-22T22:08:30.203Z,99248.03
2018-08-22T22:11:04.262Z,99256.12
2018-08-22T22:13:33.598Z,99251.28
2018-08-22T22:16:04.354Z,99253.63
2018-08-22T22:18:34.599Z,99250.04
2018-08-22T22:21:11.127Z,99256.88
2018-08-22T22:23:49.237Z,99256.20
2018-08-22T22:26:19.453Z,99255.06
2018-08-22T22:28:48.572Z,99255.52
2018-08-22T22:31:18.258Z,99254.03
2018-08-22T22:34:07.040Z,99249.77
2018-08-22T22:36:44.950Z,99249.09
2018-08-22T22:39:27.758Z,99247.95
2018-08-22T22:41:56.996Z,99253.63
2018-08-22T22:44:26.633Z,99246.23
2018-08-22T22:46:55.658Z,99257.08
2018-08-22T22:49:25.274Z,99254.11
2018-08-22T22:51:54.420Z,99251.67
2018-08-22T22:54:34.139Z,99255.97
2018-08-22T22:57:02.934Z,99253.53
2018-08-22T22:59:32.118Z,99253.91
2018-08-22T23:02:01.330Z,99254.48
2018-08-22T23:04:39.974Z,99244.30
2018-08-22T23:07:22.302Z,99245.45
2018-08-22T23:09:52.771Z,99245.25
2018-08-22T23:12:28.801Z,99245.02
2018-08-22T23:14:58.315Z,99248.73
2018-08-22T23:17:27.637Z,99239.70
2018-08-22T23:20:26.079Z,99237.64
2018-08-22T23:22:55.311Z,99237.53
2018-08-22T23:25:24.710Z,99232.70
2018-08-22T23:27:53.663Z,99232.93
2018-08-22T23:30:28.298Z,99230.97
2018-08-22T23:32:57.363Z,99225.08
2018-08-22T23:35:29.353Z,99232.72
2018-08-22T23:37:59.699Z,99228.08
2018-08-22T23:40:30.027Z,99226.26
2018-08-22T23:42:59.330Z,99229.60
2018-08-22T23:45:28.959Z,99227.74
2018-08-22T23:47:58.036Z,99219.56
2018-08-22T23:50:45.663Z,99223.84
2018-08-22T23:53:14.926Z,99224.31
2018-08-22T23:55:44.581Z,99225.45
2018-08-22T23:58:13.678Z,99222.25
